Werte bis 5 Uhr SommerzeitDiagramme Weilburger Grenze: Tagesdaten MonatsdatenCSV-Datei: Giessen20.csv

Wetterdaten 2020 Station: Weilburger Grenze
Temperaturen in °C relative Nieder- Global- Wind Wind Wind- Sonnen-
Datum Boden Boden Luft Luft Luft Luft Feuchte schlag strahlung max richtung schein
20 cm 5 cm 20 cm 2 m 2 m max 2 m min % mm W/m2*d m/s m/s ° h

04.08.2020 21,8 22,1 19,2 18,3 26,5 10,6 56 0,0 6114 0,9 7,6 --- ---
03.08.2020 22,4 22,4 19,2 18,6 23,2 12,3 66 0,6 4051 1,1 5,9 --- ---
02.08.2020 23,0 23,8 22,9 22,2 26,6 17,7 65 0,5 4211 1,1 8,8 --- ---
01.08.2020 23,1 24,2 24,5 24,2 31,8 16,7 58 0,0 4557 0,5 8,7 --- ---
31.07.2020 22,6 24,4 25,6 24,6 35,0 13,4 47 0,0 7538 0,4 4,9 --- ---
30.07.2020 22,0 23,2 22,3 20,8 30,0 10,0 54 0,0 7397 0,3 5,9 --- ---
29.07.2020 21,8 22,6 19,9 18,6 25,9 8,8 58 0,0 7445 1,1 8,9 --- ---
28.07.2020 21,9 22,9 21,7 21,3 27,8 14,1 58 0,0 5179 1,6 10,3 --- ---
27.07.2020 21,9 22,1 21,7 20,7 29,1 10,8 64 0,0 5012 2,1 10,5 --- ---
20.07.2020 21,2 21,4 18,6 18,3 25,6 13,0 72 0,3 3383 0,9 6,7 --- ---
19.07.2020 21,1 22,4 22,3 21,3 30,0 11,5 59 0,0 6000 0,5 7,4 --- ---
18.07.2020 20,6 22,0 22,2 20,7 27,8 13,7 61 0,0 6468 0,4 10,3 --- ---
17.07.2020 20,1 20,8 19,1 17,9 23,4 13,0 77 0,0 4346 0,5 5,2 --- ---
16.07.2020 20,5 20,0 16,3 15,7 18,6 13,9 84 2,6 1808 0,6 5,1 --- ---
15.07.2020 21,0 21,6 18,7 17,5 22,6 14,0 72 0,7 4786 1,4 7,3 --- ---
14.07.2020 20,9 21,9 20,3 19,1 28,2 10,0 62 0,8 5559 0,8 9,0 --- ---
13.07.2020 20,2 21,3 20,6 18,9 27,5 9,0 55 0,0 8107 0,8 5,9 --- ---
12.07.2020 20,0 20,3 17,5 16,4 24,3 7,2 62 0,0 6387 1,1 5,8 --- ---
11.07.2020 20,2 20,3 17,4 16,1 22,0 9,8 64 0,0 5320 1,1 6,0 --- ---
10.07.2020 20,8 21,0 19,2 19,0 23,2 13,3 71 0,0 3026 1,7 10,3 --- ---
09.07.2020 20,3 21,3 21,7 21,0 28,4 15,4 75 1,1 4796 1,4 7,6 --- ---
08.07.2020 20,5 20,3 15,8 15,3 17,4 12,4 85 2,1 1972 1,1 5,1 --- ---
07.07.2020 20,5 20,8 17,6 16,2 22,7 6,8 64 0,0 6858 1,3 8,0 --- ---
06.07.2020 21,4 21,3 16,7 16,2 20,9 9,9 63 0,0 4349 2,2 11,3 --- ---
05.07.2020 21,5 22,6 22,8 22,4 28,1 18,5 68 0,0 4473 2,0 12,3 --- ---
04.07.2020 21,2 21,7 20,4 19,7 26,5 10,0 64 0,0 5665 1,5 10,0 --- ---
03.07.2020 21,4 22,0 18,7 17,8 24,4 11,1 72 0,0 6753 1,4 8,1 --- ---
02.07.2020 21,5 22,7 20,1 18,8 25,3 13,6 79 4,8 6323 1,4 11,7 --- ---
01.07.2020 21,0 21,8 21,7 21,0 27,8 13,4 68 2,6 5028 1,9 9,8 --- ---
30.06.2020 21,0 21,2 18,4 17,4 24,0 8,6 63 0,0 6478 1,8 9,0 --- ---
29.06.2020 21,3 21,7 18,1 16,9 24,4 10,7 72 1,4 6572 1,4 10,1 --- ---
28.06.2020 22,1 22,6 19,9 19,8 23,6 13,7 71 1,4 3439 1,4 9,2 --- ---
27.06.2020 22,4 23,4 23,2 22,8 28,8 15,9 68 0,0 4594 1,4 9,3 --- ---
26.06.2020 21,8 23,4 24,0 22,5 29,8 13,5 63 0,0 8110 1,4 6,5 --- ---
25.06.2020 21,6 22,8 22,0 21,5 27,5 13,9 66 0,0 6392 1,5 7,3 --- ---
24.06.2020 21,3 22,8 22,5 19,6 26,7 10,8 55 0,0 8366 1,8 7,7 --- ---
23.06.2020 20,9 22,2 21,5 19,8 27,6 10,2 63 0,0 8280 1,1 5,8 --- ---
22.06.2020 21,0 22,1 19,7 18,9 24,8 12,9 72 0,0 6325 1,3 7,3 --- ---
21.06.2020 20,6 22,6 17,6 16,3 29,7 11,3 65 0,0 6945 0,5 5,3 --- ---
20.06.2020 20,3 22,8 18,5 17,2 26,4 13,7 71 0,0 6859 1,1 7,6 --- ---
19.06.2020 19,9 21,6 18,2 16,9 26,2 12,0 72 0,0 6737 1,4 7,3 --- ---
18.06.2020 19,8 21,0 18,8 16,9 23,7 14,0 83 0,0 4116 0,8 4,3 --- ---
17.06.2020 19,1 20,6 19,5 17,6 27,3 13,8 90 19,0 4508 0,8 9,3 --- ---
16.06.2020 19,2 19,7 17,4 17,0 19,6 15,1 95 2,9 1675 0,5 4,2 --- ---
15.06.2020 19,7 20,4 18,0 17,7 20,9 16,3 86 4,0 2409 1,0 6,7 --- ---
14.06.2020 20,2 21,5 19,0 18,7 21,9 16,4 86 6,0 3030 1,4 8,0 --- ---
13.06.2020 19,2 22,0 23,5 22,6 29,3 15,3 65 1,0 8010 1,8 7,8 --- ---
12.06.2020 17,6 19,5 21,2 20,3 28,4 12,1 70 0,0 7123 1,7 14,1 --- ---
11.06.2020 17,0 17,9 16,0 15,4 19,3 12,5 87 6,5 3140 0,8 4,7 --- ---
10.06.2020 16,8 17,3 15,5 15,2 19,1 12,9 83 1,7 2241 1,3 4,9 --- ---
09.06.2020 16,7 17,1 15,8 14,9 20,7 8,0 75 0,1 4117 1,3 6,3 --- ---
08.06.2020 16,7 17,3 15,7 14,4 21,7 7,1 70 0,0 6091 1,0 6,3 --- ---
07.06.2020 16,4 16,7 14,5 13,3 19,3 5,9 70 0,0 5772 1,1 9,1 --- ---
06.06.2020 16,6 16,2 12,0 11,2 17,3 4,3 82 3,9 4471 1,5 9,7 --- ---
05.06.2020 17,6 17,1 11,6 11,0 14,2 6,5 85 7,1 2355 1,6 9,3 --- ---
04.06.2020 18,6 18,5 14,6 14,0 17,9 11,6 92 4,5 1330 1,0 6,8 --- ---
03.06.2020 18,9 20,3 19,6 18,0 28,2 11,0 71 1,6 5622 1,0 8,8 --- ---
02.06.2020 18,4 20,1 21,2 19,5 28,7 9,7 55 0,0 7935 1,1 5,8 --- ---
01.06.2020 17,8 19,3 19,8 18,0 26,5 7,2 56 0,0 8341 1,6 7,8 --- ---
31.05.2020 17,7 18,8 17,2 15,4 21,5 9,3 57 0,0 7154 1,8 8,8 --- ---
30.05.2020 17,4 18,5 16,9 15,5 21,7 7,2 52 0,0 7640 1,8 10,5 --- ---
29.05.2020 17,4 18,4 16,9 15,1 22,2 6,1 54 0,0 8117 1,7 6,8 --- ---
28.05.2020 17,4 19,0 18,1 16,3 21,8 8,4 51 0,0 8410 2,3 8,4 --- ---
27.05.2020 16,6 17,8 17,8 16,4 24,3 5,9 62 0,0 7722 1,0 7,4 --- ---
26.05.2020 16,4 17,1 15,5 13,8 21,2 4,8 69 0,0 6892 1,2 5,4 --- ---
25.05.2020 16,3 17,2 16,0 15,5 21,3 8,9 69 0,0 5169 1,9 9,2 --- ---
24.05.2020 16,5 16,4 12,5 12,2 17,0 4,6 78 0,0 3519 1,4 7,9 --- ---
23.05.2020 17,4 18,0 14,2 13,5 16,1 8,8 81 3,1 3082 1,2 6,8 --- ---
22.05.2020 17,4 18,5 18,5 18,4 25,0 11,1 79 9,3 3248 1,3 6,6 --- ---
21.05.2020 17,0 18,8 19,5 17,7 26,7 8,8 67 0,0 7874 1,0 5,6 --- ---
20.05.2020 16,6 18,6 19,7 18,2 23,8 12,1 67 0,0 6294 1,3 6,9 --- ---
19.05.2020 15,7 17,0 17,5 16,9 25,6 5,8 63 0,0 5831 1,1 5,9 --- ---
18.05.2020 15,2 16,5 16,2 15,3 24,4 4,3 64 0,0 7512 1,2 8,3 --- ---
17.05.2020 14,7 15,9 14,7 13,0 20,6 5,6 62 0,0 7685 1,0 6,4 --- ---
16.05.2020 14,2 15,0 13,2 11,4 20,0 0,6 61 0,0 7607 0,9 6,5 --- ---
15.05.2020 14,0 14,7 11,9 10,5 17,8 2,0 56 0,0 7589 1,6 7,7 --- ---
14.05.2020 13,8 14,3 10,3 9,1 15,0 2,2 65 0,0 6689 2,0 7,2 --- ---
13.05.2020 13,6 13,8 10,6 9,1 15,2 1,1 65 0,0 5424 1,3 8,8 --- ---
12.05.2020 13,7 13,2 9,1 7,2 14,3 -1,0 66 0,7 6291 0,8 7,4 --- ---
11.05.2020 15,2 14,5 6,8 7,1 14,4 2,7 74 2,1 1479 3,2 12,0 --- ---
10.05.2020 15,5 16,7 16,2 15,0 23,4 9,3 88 3,3 3591 0,7 7,0 --- ---
09.05.2020 15,3 16,6 15,6 15,7 22,1 8,6 65 0,0 4339 1,2 5,2 --- ---
08.05.2020 14,6 16,2 16,6 16,1 24,3 6,5 57 0,0 6571 0,7 4,7 --- ---
07.05.2020 13,8 14,8 13,8 12,6 24,1 1,5 61 0,0 7497 0,7 5,5 --- ---
06.05.2020 13,5 14,1 11,8 10,2 18,6 0,5 60 0,0 7659 1,0 5,8 --- ---
05.05.2020 13,3 13,6 10,4 9,0 15,5 1,7 65 0,0 7482 1,5 6,9 --- ---
04.05.2020 13,8 14,2 10,7 10,6 14,2 3,0 83 1,6 2417 1,2 6,9 --- ---
03.05.2020 13,2 14,0 12,4 11,4 18,1 3,0 73 0,0 6536 1,1 5,8 --- ---
02.05.2020 13,3 13,1 9,5 9,1 13,4 5,5 86 3,5 3382 1,3 8,2 --- ---
01.05.2020 13,5 13,5 10,0 9,5 15,0 5,1 86 4,8 3718 1,4 10,4 --- ---
30.04.2020 14,0 14,2 11,8 11,9 16,7 7,5 83 8,5 2730 2,4 10,6 --- ---
29.04.2020 13,8 14,4 12,7 12,8 18,6 6,7 77 0,0 4507 1,4 12,0 --- ---
28.04.2020 13,9 13,9 10,8 11,0 18,3 5,0 88 1,8 2092 1,0 7,6 --- ---
27.04.2020 13,8 14,6 12,9 13,1 23,0 2,7 62 0,0 6625 0,8 6,9 --- ---
26.04.2020 13,4 14,0 12,0 11,5 20,7 2,2 63 0,0 7025 0,8 6,3 --- ---
25.04.2020 13,4 13,9 11,1 10,7 17,2 3,6 63 0,0 6723 1,3 6,1 --- ---
24.04.2020 13,2 13,8 12,5 13,0 22,4 3,6 64 0,0 5535 1,3 8,3 --- ---
23.04.2020 12,8 13,6 13,1 13,8 23,2 4,6 55 0,0 6895 1,1 5,6 --- ---
22.04.2020 12,4 12,9 14,3 14,5 21,1 7,4 44 0,0 6994 2,4 10,1 --- ---
21.04.2020 12,2 12,3 13,0 13,2 19,6 6,5 45 0,0 6915 2,7 12,3 --- ---
20.04.2020 12,4 12,4 11,9 11,9 17,9 5,8 45 0,0 6889 2,7 12,0 --- ---
19.04.2020 13,1 13,5 12,1 12,1 16,8 9,1 73 0,0 2860 1,9 7,7 --- ---
18.04.2020 12,7 14,0 14,3 14,8 23,8 7,0 71 16,9 4039 0,8 5,7 --- ---
17.04.2020 11,7 13,1 15,2 15,4 25,1 4,7 57 0,0 6155 1,0 5,1 --- ---
16.04.2020 10,8 11,5 11,7 12,4 24,6 1,2 60 0,0 6076 0,6 6,0 --- ---
15.04.2020 10,3 10,1 7,9 7,5 17,3 -1,2 63 0,0 5573 0,3 5,1 --- ---
14.04.2020 10,5 9,6 6,0 5,7 12,0 -1,0 57 0,0 4784 1,0 6,7 --- ---
13.04.2020 11,7 11,1 7,6 7,7 12,0 2,0 63 0,0 3718 1,8 9,9 --- ---
12.04.2020 11,8 12,5 12,5 13,3 24,1 3,9 58 0,0 5430 0,9 8,0 --- ---
11.04.2020 11,6 12,2 11,4 12,0 22,5 2,8 51 0,0 6273 0,8 5,3 --- ---
10.04.2020 11,4 12,5 13,3 14,0 22,2 6,4 58 0,0 5586 1,4 5,7 --- ---
09.04.2020 11,1 12,2 12,9 14,1 23,8 4,1 63 0,0 4040 0,8 6,1 --- ---
08.04.2020 10,4 11,9 13,7 14,7 24,4 6,3 62 0,0 5729 0,7 4,5 --- ---
07.04.2020 9,4 10,7 12,9 13,4 22,0 3,3 64 0,0 5867 1,2 6,4 --- ---
06.04.2020 8,5 9,2 10,7 11,8 23,0 1,8 55 0,0 5809 1,0 9,9 --- ---
05.04.2020 7,9 8,3 8,9 9,9 18,9 1,1 58 0,0 5891 1,5 10,6 --- ---
04.04.2020 7,4 7,5 6,3 6,4 15,3 -2,2 69 0,0 5699 0,5 4,7 --- ---
03.04.2020 7,3 7,1 6,3 6,9 12,6 0,1 70 0,0 1719 0,7 6,6 --- ---
02.04.2020 7,0 6,7 4,9 5,3 14,0 -3,2 63 0,0 5571 0,7 7,3 --- ---
01.04.2020 6,8 6,2 3,6 3,4 12,2 -4,6 57 0,0 5696 0,4 4,5 --- ---
31.03.2020 7,1 6,8 4,5 4,2 8,9 -2,0 62 0,0 4485 1,3 7,8 --- ---
30.03.2020 6,7 6,0 3,7 3,5 9,2 -3,6 50 0,0 5316 0,9 6,1 --- ---
29.03.2020 7,5 6,9 4,1 4,2 8,5 -0,9 66 0,1 2923 2,9 12,0 --- ---
28.03.2020 7,2 7,7 10,3 10,8 17,6 4,0 53 0,0 4993 2,0 8,7 --- ---
27.03.2020 6,3 6,3 9,4 9,9 16,8 3,2 52 0,0 4901 1,9 9,2 --- ---
26.03.2020 5,7 5,0 5,6 5,6 11,0 -0,1 48 0,0 5027 2,1 9,4 --- ---
25.03.2020 5,7 4,4 3,7 4,0 11,0 -3,6 44 0,0 5183 1,7 9,5 --- ---
24.03.2020 6,1 4,7 2,4 3,0 9,8 -3,7 46 0,0 5334 1,6 9,3 --- ---
23.03.2020 6,8 5,2 2,6 2,9 9,0 -3,3 45 0,0 5267 1,8 10,2 --- ---
22.03.2020 7,8 6,3 3,8 3,5 8,6 -0,6 54 0,0 5228 1,8 9,2 --- ---
21.03.2020 9,0 8,4 5,5 5,4 8,6 1,2 69 0,8 3244 2,9 12,5 --- ---
20.03.2020 9,2 9,7 9,3 9,5 14,2 6,2 82 0,0 2577 2,4 9,1 --- ---
19.03.2020 8,8 9,5 10,0 10,4 18,6 4,1 77 0,0 3284 0,6 4,0 --- ---
18.03.2020 8,4 8,6 8,4 8,8 17,3 0,5 78 0,0 3975 0,9 7,2 --- ---
17.03.2020 8,3 9,2 9,7 10,1 16,9 3,7 75 0,0 3694 0,9 6,8 --- ---
16.03.2020 7,4 7,5 8,4 8,7 17,4 0,7 78 0,0 4015 0,6 4,3 --- ---
15.03.2020 7,4 7,4 7,4 7,9 14,8 2,4 72 0,0 4190 2,2 9,6 --- ---
14.03.2020 7,6 7,1 4,7 4,7 11,1 0,5 87 0,1 2408 0,9 7,0 --- ---
13.03.2020 8,2 7,6 6,2 6,7 11,1 2,9 71 1,1 2815 2,2 11,7 --- ---
12.03.2020 8,9 9,9 10,0 10,8 13,8 3,9 68 1,4 2525 2,7 14,5 --- ---
11.03.2020 7,7 9,6 13,0 13,4 15,9 12,0 89 5,3 2161 2,6 11,5 --- ---
10.03.2020 6,7 6,6 7,7 8,3 12,5 3,7 93 7,1 705 2,7 10,2 --- ---
09.03.2020 6,6 7,1 6,8 7,4 11,5 3,5 82 1,0 2970 1,4 8,8 --- ---
08.03.2020 5,8 5,9 7,0 7,3 10,9 2,0 81 0,1 1853 2,5 9,3 --- ---
07.03.2020 5,8 5,5 4,6 5,1 8,9 0,6 76 0,0 1746 1,7 8,1 --- ---
06.03.2020 6,1 5,9 5,0 5,5 6,6 3,1 88 1,2 548 2,5 9,4 --- ---
05.03.2020 6,2 6,4 6,2 6,4 10,5 2,9 82 10,3 2382 2,2 10,6 --- ---
04.03.2020 5,8 5,8 7,0 7,5 10,8 4,3 77 4,1 2415 2,7 12,1 --- ---
03.03.2020 6,3 6,5 6,2 6,4 10,5 2,9 83 2,4 2697 1,9 9,1 --- ---
02.03.2020 6,2 6,4 6,2 6,4 10,5 2,9 82 1,7 2382 2,2 10,6 --- ---
01.03.2020 5,8 5,8 7,0 7,5 10,8 4,3 77 3,5 2415 2,7 12,1 --- ---
29.02.2020 5,4 5,5 6,9 7,6 13,4 3,3 83 2,1 1590 2,9 14,9 --- ---
28.02.2020 5,0 4,4 3,6 3,9 6,9 1,9 83 5,7 2265 2,6 10,9 --- ---
27.02.2020 5,6 4,5 2,0 2,5 4,8 0,6 92 7,3 630 2,0 8,2 --- ---
26.02.2020 6,2 5,2 2,7 3,1 5,2 2,1 90 4,2 810 1,9 9,9 --- ---
25.02.2020 6,3 6,9 7,8 8,2 11,7 3,0 81 4,6 2232 2,1 10,6 --- ---
24.02.2020 6,1 5,5 4,9 5,7 10,8 1,0 91 2,9 498 1,7 9,1 --- ---
23.02.2020 5,9 6,5 9,0 9,8 12,7 6,0 87 6,3 319 2,8 13,4 --- ---
22.02.2020 5,4 4,8 6,1 6,9 11,1 0,1 75 0,1 1621 2,1 10,6 --- ---
21.02.2020 5,6 5,4 5,6 5,9 7,8 4,2 73 0,0 1694 2,5 15,6 --- ---
20.02.2020 5,4 5,1 6,0 6,6 10,5 0,6 83 3,0 1078 2,5 10,3 --- ---
19.02.2020 5,7 5,3 4,2 5,0 7,5 -0,4 79 2,7 1650 2,4 11,9 --- ---
18.02.2020 5,8 5,6 6,1 6,7 9,4 5,4 77 0,7 1281 2,1 10,9 --- ---
17.02.2020 6,0 6,4 7,1 7,9 9,8 4,4 82 4,2 686 2,3 11,6 --- ---
16.02.2020 4,9 5,6 11,6 12,9 16,6 7,4 65 1,4 956 4,2 13,8 --- ---
15.02.2020 4,2 3,9 4,8 5,5 11,0 0,0 89 0,0 2026 1,6 9,1 --- ---
14.02.2020 3,8 3,7 4,4 5,2 7,6 2,8 92 0,7 815 1,1 7,1 --- ---
13.02.2020 3,8 2,3 1,2 2,1 4,7 -1,7 96 8,2 324 1,6 9,7 --- ---
12.02.2020 4,5 3,5 3,5 4,3 8,0 0,6 75 0,8 2051 1,9 10,8 --- ---
11.02.2020 5,0 4,4 3,8 4,3 7,9 1,3 76 5,2 1685 2,9 16,0 --- ---
10.02.2020 4,8 5,6 7,4 8,1 13,5 4,5 78 16,9 1492 3,4 18,5 --- ---
09.02.2020 3,3 3,1 6,8 7,9 13,3 1,3 79 0,2 906 3,6 18,6 --- ---
08.02.2020 3,2 1,5 0,3 1,1 4,5 -3,6 91 0,0 937 0,7 5,7 --- ---
07.02.2020 3,8 2,3 1,0 1,5 6,5 -2,3 87 0,0 2211 1,1 8,9 --- ---
06.02.2020 4,3 2,7 0,4 0,8 4,6 -2,0 95 0,0 715 0,7 5,0 --- ---
05.02.2020 5,3 3,9 2,9 3,6 10,1 -1,9 78 0,0 2281 1,2 6,7 --- ---
04.02.2020 6,3 5,8 3,7 4,3 6,8 1,3 89 7,0 1337 2,1 9,4 --- ---
03.02.2020 6,4 6,8 8,8 9,7 11,8 6,8 82 7,5 845 1,8 11,3 --- ---
02.02.2020 6,2 6,4 8,3 9,0 13,2 5,9 83 3,6 370 2,1 12,5 --- ---
01.02.2020 5,9 7,0 9,9 10,9 12,5 7,9 89 16,8 248 2,2 9,7 --- ---
31.01.2020 4,6 5,9 11,4 12,4 15,9 8,6 83 0,3 1227 2,1 8,5 --- ---
30.01.2020 3,5 3,3 5,7 6,6 9,1 3,2 86 0,3 883 2,4 8,1 --- ---
29.01.2020 3,5 2,9 2,5 3,4 6,8 1,3 88 1,2 939 1,6 11,0 --- ---
28.01.2020 3,7 3,7 4,1 4,9 7,2 1,0 84 7,6 877 2,1 12,8 --- ---
27.01.2020 3,0 3,0 4,4 5,0 7,3 2,7 99 8,7 207 2,2 6,2 --- ---
26.01.2020 2,4 1,9 1,3 1,5 2,8 0,1 99 0,0 305 1,8 4,7 --- ---
25.01.2020 2,1 1,2 -0,1 0,0 1,0 -1,2 97 0,0 348 1,1 4,0 --- ---
24.01.2020 2,0 0,7 -0,1 0,2 0,7 -0,7 92 0,0 240 1,7 5,0 --- ---
23.01.2020 2,2 0,7 0,1 0,7 4,0 -1,9 96 0,0 371 0,1 3,2 --- ---
22.01.2020 2,5 0,7 -2,7 -2,6 0,4 -5,7 99 0,0 506 0,2 4,2 --- ---
21.01.2020 3,3 1,3 -2,1 -1,5 6,3 -5,3 93 0,0 1856 0,2 2,5 --- ---
20.01.2020 4,0 3,1 1,2 2,1 5,8 -2,1 88 0,0 967 0,9 5,0 --- ---
19.01.2020 4,1 2,8 1,3 2,0 5,4 -0,9 96 0,0 747 0,5 4,4 --- ---
18.01.2020 4,7 3,7 2,4 3,6 6,5 0,1 91 0,6 570 0,9 6,6 --- ---
17.01.2020 5,2 3,9 2,5 3,7 7,9 -1,0 96 1,1 870 0,8 5,7 --- ---
16.01.2020 5,8 6,1 7,1 8,4 13,1 1,9 91 0,6 1225 1,1 6,8 --- ---
15.01.2020 5,2 5,5 9,2 10,3 13,8 7,1 72 0,0 1383 2,8 10,7 --- ---
14.01.2020 4,6 4,7 7,2 8,1 11,1 5,2 80 0,0 464 2,7 9,4 --- ---
13.01.2020 4,2 4,0 4,9 5,5 6,7 4,0 94 0,0 433 2,0 6,0 --- ---
12.01.2020 4,2 2,8 1,7 2,4 5,6 -1,7 94 0,0 318 1,8 9,0 --- ---
11.01.2020 5,1 4,2 2,9 3,7 6,7 0,3 87 0,1 880 1,3 6,0 --- ---
10.01.2020 5,3 5,9 7,2 8,1 11,3 4,5 91 1,5 533 1,9 6,6 --- ---
09.01.2020 4,3 5,0 7,8 8,6 10,7 6,1 99 18,6 114 1,6 5,5 --- ---
08.01.2020 3,5 3,3 4,4 5,0 6,5 3,7 98 1,4 126 1,8 4,4 --- ---
07.01.2020 3,4 3,0 2,2 2,8 5,7 -0,3 99 0,1 365 1,2 5,5 --- ---
06.01.2020 3,3 3,1 2,5 2,8 4,4 0,1 99 0,0 444 1,6 5,8 --- ---
05.01.2020 2,7 2,6 3,5 4,3 5,5 3,0 99 1,1 159 0,2 2,5 --- ---
04.01.2020 2,0 1,3 3,0 4,1 7,0 1,1 95 1,3 284 1,6 8,7 --- ---
03.01.2020 1,8 0,4 3,7 4,6 8,2 0,6 97 1,4 272 1,0 6,1 --- ---
02.01.2020 1,9 0,4 -2,0 -1,9 0,8 -5,1 99 0,0 152 0,8 4,3 --- ---
01.01.2020 2,0 0,5 -2,9 -2,4 0,1 -4,3 99 0,1 550 0,1 2,6 --- ---

Mittelwerte (Temperaturen, Strahlung, rel. Feuchte, Wind), Summe (Regen) für 2020
11,8 12,0 11,2 11,1 74 331 3.867 1,5

Landesbetrieb Landwirtschaft Hessen 2009

      Werte bis 5 Uhr SommerzeitCSV-Datei: Giessen20.csvDiagramm: Giessen